EmailTwitter


Observations de surface / Québec / LFBD

Régions: Québec | Canada | États-Unis | Europe | France | UK | Ailleurs
Station
Affichage
Infos & localisation pour LFBD | Aide pour décoder les METARs

Observations prises le 2017-09-26 à 16H00 UTC à BORDEAUX/MERIGNA, FR (LFBD)

Etat du ciel: ciel variable.

Température: 20.0 Celsius

Point de rosée: 14.0 Celsius

Humidité relative: 68%

Vents: Variable à 4 km/h ou 2 noeuds.

Pression au niveau moyen de la mer: 102.10 kilopascals.

Visibilité horizontale: 6.21 milles terrestres ou 9.94 kilomètres.

Observation METAR:

LFBD 261600Z AUTO VRB02KT 9999 SCT042 20/14 Q1021 NOSIG=